sensor_id;sensor_type;location;lat;lon;timestamp;temperature;humidity
1996;DHT22;38556;47.068;15.408;2022-09-13T00:00:38;15.60;99.90
1996;DHT22;38556;47.068;15.408;2022-09-13T00:03:07;15.50;99.90
1996;DHT22;38556;47.068;15.408;2022-09-13T00:05:35;15.40;99.90
1996;DHT22;38556;47.068;15.408;2022-09-13T00:08:03;15.40;99.90
1996;DHT22;38556;47.068;15.408;2022-09-13T00:10:33;15.30;99.90
1996;DHT22;38556;47.068;15.408;2022-09-13T00:13:01;15.40;99.90
1996;DHT22;38556;47.068;15.408;2022-09-13T00:15:28;15.80;99.90
1996;DHT22;38556;47.068;15.408;2022-09-13T00:17:57;15.80;99.90
1996;DHT22;38556;47.068;15.408;2022-09-13T00:20:25;16.10;99.90
1996;DHT22;38556;47.068;15.408;2022-09-13T00:22:52;16.10;99.90
1996;DHT22;38556;47.068;15.408;2022-09-13T00:25:19;16.10;99.90
1996;DHT22;38556;47.068;15.408;2022-09-13T00:27:46;16.10;99.90
1996;DHT22;38556;47.068;15.408;2022-09-13T00:32:41;16.40;99.90
1996;DHT22;38556;47.068;15.408;2022-09-13T00:35:10;16.60;99.90
1996;DHT22;38556;47.068;15.408;2022-09-13T00:37:37;16.60;99.90
1996;DHT22;38556;47.068;15.408;2022-09-13T00:40:06;16.70;99.90
1996;DHT22;38556;47.068;15.408;2022-09-13T00:42:34;16.40;99.90
1996;DHT22;38556;47.068;15.408;2022-09-13T00:45:15;16.10;99.90
1996;DHT22;38556;47.068;15.408;2022-09-13T00:47:47;16.00;99.90
1996;DHT22;38556;47.068;15.408;2022-09-13T00:50:20;16.20;99.90
1996;DHT22;38556;47.068;15.408;2022-09-13T00:52:51;15.90;99.90
1996;DHT22;38556;47.068;15.408;2022-09-13T00:55:25;16.10;99.90
1996;DHT22;38556;47.068;15.408;2022-09-13T00:57:56;16.30;99.90
1996;DHT22;38556;47.068;15.408;2022-09-13T01:00:25;16.40;99.90
1996;DHT22;38556;47.068;15.408;2022-09-13T01:02:55;16.40;99.90
1996;DHT22;38556;47.068;15.408;2022-09-13T01:05:29;16.30;99.90
1996;DHT22;38556;47.068;15.408;2022-09-13T01:07:59;16.10;99.90
1996;DHT22;38556;47.068;15.408;2022-09-13T01:10:27;16.00;99.90
1996;DHT22;38556;47.068;15.408;2022-09-13T01:13:02;16.00;99.90
1996;DHT22;38556;47.068;15.408;2022-09-13T01:15:35;16.10;99.90
1996;DHT22;38556;47.068;15.408;2022-09-13T01:18:03;15.90;99.90
1996;DHT22;38556;47.068;15.408;2022-09-13T01:20:55;15.20;99.90
1996;DHT22;38556;47.068;15.408;2022-09-13T01:24:07;15.30;99.90
1996;DHT22;38556;47.068;15.408;2022-09-13T01:27:05;15.30;99.90
1996;DHT22;38556;47.068;15.408;2022-09-13T01:30:02;15.40;99.90
1996;DHT22;38556;47.068;15.408;2022-09-13T01:32:38;15.50;99.90
1996;DHT22;38556;47.068;15.408;2022-09-13T01:35:12;15.60;99.90
1996;DHT22;38556;47.068;15.408;2022-09-13T01:37:50;15.60;99.90
1996;DHT22;38556;47.068;15.408;2022-09-13T01:40:35;15.40;99.90
1996;DHT22;38556;47.068;15.408;2022-09-13T01:43:22;15.40;99.90
1996;DHT22;38556;47.068;15.408;2022-09-13T01:45:59;15.20;99.90
1996;DHT22;38556;47.068;15.408;2022-09-13T01:48:38;15.40;99.90
1996;DHT22;38556;47.068;15.408;2022-09-13T01:51:11;15.40;99.90
1996;DHT22;38556;47.068;15.408;2022-09-13T01:53:49;15.40;99.90
1996;DHT22;38556;47.068;15.408;2022-09-13T01:56:21;15.30;99.90
1996;DHT22;38556;47.068;15.408;2022-09-13T01:58:53;15.40;99.90
1996;DHT22;38556;47.068;15.408;2022-09-13T02:01:27;15.70;99.90
1996;DHT22;38556;47.068;15.408;2022-09-13T02:03:58;15.70;99.90
1996;DHT22;38556;47.068;15.408;2022-09-13T02:06:32;15.70;99.90
1996;DHT22;38556;47.068;15.408;2022-09-13T02:09:03;15.70;99.90
1996;DHT22;38556;47.068;15.408;2022-09-13T02:11:35;15.60;99.90
1996;DHT22;38556;47.068;15.408;2022-09-13T02:14:06;15.60;99.90
1996;DHT22;38556;47.068;15.408;2022-09-13T02:16:39;15.40;99.90
1996;DHT22;38556;47.068;15.408;2022-09-13T02:19:10;15.80;99.90
1996;DHT22;38556;47.068;15.408;2022-09-13T02:21:43;15.90;99.90
1996;DHT22;38556;47.068;15.408;2022-09-13T02:24:15;15.70;99.90
1996;DHT22;38556;47.068;15.408;2022-09-13T02:26:44;15.70;99.90
1996;DHT22;38556;47.068;15.408;2022-09-13T02:29:18;15.80;99.90
1996;DHT22;38556;47.068;15.408;2022-09-13T02:31:50;15.80;99.90
1996;DHT22;38556;47.068;15.408;2022-09-13T02:34:22;15.80;99.90
1996;DHT22;38556;47.068;15.408;2022-09-13T02:36:54;15.80;99.90
1996;DHT22;38556;47.068;15.408;2022-09-13T02:39:24;15.80;99.90
1996;DHT22;38556;47.068;15.408;2022-09-13T02:41:55;15.80;99.90
1996;DHT22;38556;47.068;15.408;2022-09-13T02:44:30;15.80;99.90
1996;DHT22;38556;47.068;15.408;2022-09-13T02:47:08;15.70;99.90
1996;DHT22;38556;47.068;15.408;2022-09-13T02:49:47;15.70;99.90
1996;DHT22;38556;47.068;15.408;2022-09-13T02:52:22;15.50;99.90
1996;DHT22;38556;47.068;15.408;2022-09-13T02:54:56;15.30;99.90
1996;DHT22;38556;47.068;15.408;2022-09-13T02:57:28;15.30;99.90
1996;DHT22;38556;47.068;15.408;2022-09-13T03:02:31;15.40;99.90
1996;DHT22;38556;47.068;15.408;2022-09-13T03:04:58;15.60;99.90
1996;DHT22;38556;47.068;15.408;2022-09-13T03:07:26;15.60;99.90
1996;DHT22;38556;47.068;15.408;2022-09-13T03:09:56;15.40;99.90
1996;DHT22;38556;47.068;15.408;2022-09-13T03:12:54;15.60;99.90
1996;DHT22;38556;47.068;15.408;2022-09-13T03:15:36;15.50;99.90
1996;DHT22;38556;47.068;15.408;2022-09-13T03:18:18;15.50;99.90
1996;DHT22;38556;47.068;15.408;2022-09-13T03:20:59;15.40;99.90
1996;DHT22;38556;47.068;15.408;2022-09-13T03:23:46;15.50;99.90
1996;DHT22;38556;47.068;15.408;2022-09-13T03:26:26;15.60;99.90
1996;DHT22;38556;47.068;15.408;2022-09-13T03:29:09;15.60;99.90
1996;DHT22;38556;47.068;15.408;2022-09-13T03:31:44;15.60;99.90
1996;DHT22;38556;47.068;15.408;2022-09-13T03:34:21;15.60;99.90
1996;DHT22;38556;47.068;15.408;2022-09-13T03:36:55;15.00;99.90
1996;DHT22;38556;47.068;15.408;2022-09-13T03:39:28;15.30;99.90
1996;DHT22;38556;47.068;15.408;2022-09-13T03:42:04;15.40;99.90
1996;DHT22;38556;47.068;15.408;2022-09-13T03:44:36;15.50;99.90
1996;DHT22;38556;47.068;15.408;2022-09-13T03:47:05;15.60;99.90
1996;DHT22;38556;47.068;15.408;2022-09-13T03:49:36;15.70;99.90
1996;DHT22;38556;47.068;15.408;2022-09-13T03:52:05;15.60;99.90
1996;DHT22;38556;47.068;15.408;2022-09-13T03:54:36;15.80;99.90
1996;DHT22;38556;47.068;15.408;2022-09-13T03:57:08;15.80;99.90
1996;DHT22;38556;47.068;15.408;2022-09-13T03:59:37;15.80;99.90
1996;DHT22;38556;47.068;15.408;2022-09-13T04:02:06;15.80;99.90
1996;DHT22;38556;47.068;15.408;2022-09-13T04:04:38;15.80;99.90
1996;DHT22;38556;47.068;15.408;2022-09-13T04:07:06;15.80;99.90
1996;DHT22;38556;47.068;15.408;2022-09-13T04:09:34;15.80;99.90
1996;DHT22;38556;47.068;15.408;2022-09-13T04:12:01;15.70;99.90
1996;DHT22;38556;47.068;15.408;2022-09-13T04:14:29;15.80;99.90
1996;DHT22;38556;47.068;15.408;2022-09-13T04:16:57;15.70;99.90
1996;DHT22;38556;47.068;15.408;2022-09-13T04:19:25;15.70;99.90
1996;DHT22;38556;47.068;15.408;2022-09-13T04:21:54;15.60;99.90
1996;DHT22;38556;47.068;15.408;2022-09-13T04:24:24;14.70;99.90
1996;DHT22;38556;47.068;15.408;2022-09-13T04:26:52;14.70;99.90
1996;DHT22;38556;47.068;15.408;2022-09-13T04:29:20;14.70;99.90
1996;DHT22;38556;47.068;15.408;2022-09-13T04:31:49;14.70;99.90
1996;DHT22;38556;47.068;15.408;2022-09-13T04:34:16;15.00;99.90
1996;DHT22;38556;47.068;15.408;2022-09-13T04:36:45;15.10;99.90
1996;DHT22;38556;47.068;15.408;2022-09-13T04:39:14;15.10;99.90
1996;DHT22;38556;47.068;15.408;2022-09-13T04:41:42;14.60;99.90
1996;DHT22;38556;47.068;15.408;2022-09-13T04:44:10;14.50;99.90
1996;DHT22;38556;47.068;15.408;2022-09-13T04:46:38;14.70;99.90
1996;DHT22;38556;47.068;15.408;2022-09-13T04:49:06;14.80;99.90
1996;DHT22;38556;47.068;15.408;2022-09-13T04:51:35;15.00;99.90
1996;DHT22;38556;47.068;15.408;2022-09-13T04:54:03;15.20;99.90
1996;DHT22;38556;47.068;15.408;2022-09-13T04:56:32;15.30;99.90
1996;DHT22;38556;47.068;15.408;2022-09-13T04:58:59;15.50;99.90
1996;DHT22;38556;47.068;15.408;2022-09-13T05:01:26;15.50;99.90
1996;DHT22;38556;47.068;15.408;2022-09-13T05:03:54;15.50;99.90
1996;DHT22;38556;47.068;15.408;2022-09-13T05:06:21;15.60;99.90
1996;DHT22;38556;47.068;15.408;2022-09-13T05:08:50;15.40;99.90
1996;DHT22;38556;47.068;15.408;2022-09-13T05:13:51;15.10;99.90
1996;DHT22;38556;47.068;15.408;2022-09-13T05:16:20;15.10;99.90
1996;DHT22;38556;47.068;15.408;2022-09-13T05:18:48;15.00;99.90
1996;DHT22;38556;47.068;15.408;2022-09-13T05:21:17;15.00;99.90
1996;DHT22;38556;47.068;15.408;2022-09-13T05:23:47;15.10;99.90
1996;DHT22;38556;47.068;15.408;2022-09-13T05:26:15;15.30;99.90
1996;DHT22;38556;47.068;15.408;2022-09-13T05:28:44;15.60;99.90
1996;DHT22;38556;47.068;15.408;2022-09-13T05:31:15;15.60;99.90
1996;DHT22;38556;47.068;15.408;2022-09-13T05:33:43;15.50;99.90
1996;DHT22;38556;47.068;15.408;2022-09-13T05:36:11;15.50;99.90
1996;DHT22;38556;47.068;15.408;2022-09-13T05:38:39;15.50;99.90
1996;DHT22;38556;47.068;15.408;2022-09-13T05:41:06;15.70;99.90
1996;DHT22;38556;47.068;15.408;2022-09-13T05:43:35;15.90;99.90
1996;DHT22;38556;47.068;15.408;2022-09-13T05:46:04;16.20;99.90
1996;DHT22;38556;47.068;15.408;2022-09-13T05:48:34;16.20;99.90
1996;DHT22;38556;47.068;15.408;2022-09-13T05:51:06;16.20;99.90
1996;DHT22;38556;47.068;15.408;2022-09-13T05:53:34;16.30;99.90
1996;DHT22;38556;47.068;15.408;2022-09-13T05:58:30;16.20;99.90
1996;DHT22;38556;47.068;15.408;2022-09-13T06:03:25;16.10;99.90
1996;DHT22;38556;47.068;15.408;2022-09-13T06:05:57;16.20;99.90
1996;DHT22;38556;47.068;15.408;2022-09-13T06:08:26;16.40;99.90
1996;DHT22;38556;47.068;15.408;2022-09-13T06:10:55;16.50;99.90
1996;DHT22;38556;47.068;15.408;2022-09-13T06:13:23;16.40;99.90
1996;DHT22;38556;47.068;15.408;2022-09-13T06:15:51;16.40;99.90
1996;DHT22;38556;47.068;15.408;2022-09-13T06:18:18;16.50;99.90
1996;DHT22;38556;47.068;15.408;2022-09-13T06:20:46;16.20;99.90
1996;DHT22;38556;47.068;15.408;2022-09-13T06:23:15;16.20;99.90
1996;DHT22;38556;47.068;15.408;2022-09-13T06:25:43;16.40;99.90
1996;DHT22;38556;47.068;15.408;2022-09-13T06:28:10;16.70;99.90
1996;DHT22;38556;47.068;15.408;2022-09-13T06:30:38;16.70;99.90
1996;DHT22;38556;47.068;15.408;2022-09-13T06:33:05;16.90;99.90
1996;DHT22;38556;47.068;15.408;2022-09-13T06:35:32;16.70;99.90
1996;DHT22;38556;47.068;15.408;2022-09-13T06:37:59;16.50;99.90
1996;DHT22;38556;47.068;15.408;2022-09-13T06:40:28;16.70;99.90
1996;DHT22;38556;47.068;15.408;2022-09-13T06:42:55;16.70;99.90
1996;DHT22;38556;47.068;15.408;2022-09-13T06:45:23;17.30;99.90
1996;DHT22;38556;47.068;15.408;2022-09-13T06:47:52;17.50;99.90
1996;DHT22;38556;47.068;15.408;2022-09-13T06:50:21;17.50;99.90
1996;DHT22;38556;47.068;15.408;2022-09-13T06:52:48;17.70;99.90
1996;DHT22;38556;47.068;15.408;2022-09-13T06:55:16;17.90;99.90
1996;DHT22;38556;47.068;15.408;2022-09-13T06:57:44;18.00;99.90
1996;DHT22;38556;47.068;15.408;2022-09-13T07:00:13;17.90;99.90
1996;DHT22;38556;47.068;15.408;2022-09-13T07:02:40;17.90;99.90
1996;DHT22;38556;47.068;15.408;2022-09-13T07:05:08;18.00;99.90
1996;DHT22;38556;47.068;15.408;2022-09-13T07:07:37;18.00;99.90
1996;DHT22;38556;47.068;15.408;2022-09-13T07:10:05;17.90;99.90
1996;DHT22;38556;47.068;15.408;2022-09-13T07:12:33;16.10;99.90
1996;DHT22;38556;47.068;15.408;2022-09-13T07:15:02;18.10;99.90
1996;DHT22;38556;47.068;15.408;2022-09-13T07:17:29;18.10;99.90
1996;DHT22;38556;47.068;15.408;2022-09-13T07:19:56;17.90;99.90
1996;DHT22;38556;47.068;15.408;2022-09-13T07:22:23;18.10;99.90
1996;DHT22;38556;47.068;15.408;2022-09-13T07:24:53;18.10;99.90
1996;DHT22;38556;47.068;15.408;2022-09-13T07:27:20;18.50;99.90
1996;DHT22;38556;47.068;15.408;2022-09-13T07:29:47;18.50;99.90
1996;DHT22;38556;47.068;15.408;2022-09-13T07:32:16;18.80;99.90
1996;DHT22;38556;47.068;15.408;2022-09-13T07:34:44;18.80;99.90
1996;DHT22;38556;47.068;15.408;2022-09-13T07:37:11;19.00;99.90
1996;DHT22;38556;47.068;15.408;2022-09-13T07:39:39;18.90;99.90
1996;DHT22;38556;47.068;15.408;2022-09-13T07:42:06;18.80;99.90
1996;DHT22;38556;47.068;15.408;2022-09-13T07:44:36;19.30;99.90
1996;DHT22;38556;47.068;15.408;2022-09-13T07:47:03;19.50;99.90
1996;DHT22;38556;47.068;15.408;2022-09-13T07:49:32;19.60;99.90
1996;DHT22;38556;47.068;15.408;2022-09-13T07:52:00;19.90;99.90
1996;DHT22;38556;47.068;15.408;2022-09-13T07:54:27;20.00;99.90
1996;DHT22;38556;47.068;15.408;2022-09-13T07:56:55;20.10;99.90
1996;DHT22;38556;47.068;15.408;2022-09-13T07:59:22;20.20;99.90
1996;DHT22;38556;47.068;15.408;2022-09-13T08:01:50;20.20;99.90
1996;DHT22;38556;47.068;15.408;2022-09-13T08:04:19;20.20;99.90
1996;DHT22;38556;47.068;15.408;2022-09-13T08:06:48;20.30;99.90
1996;DHT22;38556;47.068;15.408;2022-09-13T08:09:15;20.30;99.90
1996;DHT22;38556;47.068;15.408;2022-09-13T08:11:45;20.40;99.90
1996;DHT22;38556;47.068;15.408;2022-09-13T08:14:14;20.00;99.90
1996;DHT22;38556;47.068;15.408;2022-09-13T08:16:42;19.90;99.90
1996;DHT22;38556;47.068;15.408;2022-09-13T08:19:12;20.10;99.90
1996;DHT22;38556;47.068;15.408;2022-09-13T08:21:41;20.40;99.90
1996;DHT22;38556;47.068;15.408;2022-09-13T08:24:14;20.50;99.90
1996;DHT22;38556;47.068;15.408;2022-09-13T08:26:43;20.70;99.90
1996;DHT22;38556;47.068;15.408;2022-09-13T08:29:11;20.80;99.90
1996;DHT22;38556;47.068;15.408;2022-09-13T08:31:39;20.90;99.90
1996;DHT22;38556;47.068;15.408;2022-09-13T08:36:34;20.70;99.90
1996;DHT22;38556;47.068;15.408;2022-09-13T08:39:02;20.60;99.90
1996;DHT22;38556;47.068;15.408;2022-09-13T08:44:33;20.30;99.90
1996;DHT22;38556;47.068;15.408;2022-09-13T08:47:25;20.40;99.90
1996;DHT22;38556;47.068;15.408;2022-09-13T08:50:00;20.60;99.90
1996;DHT22;38556;47.068;15.408;2022-09-13T08:52:33;20.70;99.90
1996;DHT22;38556;47.068;15.408;2022-09-13T08:55:07;20.50;99.90
1996;DHT22;38556;47.068;15.408;2022-09-13T08:57:41;20.80;99.90
1996;DHT22;38556;47.068;15.408;2022-09-13T09:00:19;20.60;99.90
1996;DHT22;38556;47.068;15.408;2022-09-13T09:03:00;20.40;99.90
1996;DHT22;38556;47.068;15.408;2022-09-13T09:05:30;20.70;99.90
1996;DHT22;38556;47.068;15.408;2022-09-13T09:08:01;20.80;99.90
1996;DHT22;38556;47.068;15.408;2022-09-13T09:10:32;20.70;99.90
1996;DHT22;38556;47.068;15.408;2022-09-13T09:13:04;20.70;99.90
1996;DHT22;38556;47.068;15.408;2022-09-13T09:18:08;20.60;99.90
1996;DHT22;38556;47.068;15.408;2022-09-13T09:20:40;20.60;99.90
1996;DHT22;38556;47.068;15.408;2022-09-13T09:23:13;20.70;99.90
1996;DHT22;38556;47.068;15.408;2022-09-13T09:25:41;20.90;99.90
1996;DHT22;38556;47.068;15.408;2022-09-13T09:28:11;21.10;99.90
1996;DHT22;38556;47.068;15.408;2022-09-13T09:30:48;21.70;99.90
1996;DHT22;38556;47.068;15.408;2022-09-13T09:33:28;21.90;99.90
1996;DHT22;38556;47.068;15.408;2022-09-13T09:36:02;22.40;99.90
1996;DHT22;38556;47.068;15.408;2022-09-13T09:38:38;22.40;99.90
1996;DHT22;38556;47.068;15.408;2022-09-13T09:41:13;22.50;99.90
1996;DHT22;38556;47.068;15.408;2022-09-13T09:43:47;22.70;99.90
1996;DHT22;38556;47.068;15.408;2022-09-13T09:46:21;22.70;99.90
1996;DHT22;38556;47.068;15.408;2022-09-13T09:48:54;22.80;99.90
1996;DHT22;38556;47.068;15.408;2022-09-13T09:51:23;23.00;99.90
1996;DHT22;38556;47.068;15.408;2022-09-13T09:53:58;23.00;99.90
1996;DHT22;38556;47.068;15.408;2022-09-13T09:56:30;22.80;99.90
1996;DHT22;38556;47.068;15.408;2022-09-13T09:58:57;22.80;99.90
1996;DHT22;38556;47.068;15.408;2022-09-13T10:01:28;23.00;99.90
1996;DHT22;38556;47.068;15.408;2022-09-13T10:04:05;23.00;99.90
1996;DHT22;38556;47.068;15.408;2022-09-13T10:06:36;23.00;99.90
1996;DHT22;38556;47.068;15.408;2022-09-13T10:09:05;23.00;99.90
1996;DHT22;38556;47.068;15.408;2022-09-13T10:11:45;22.90;99.90
1996;DHT22;38556;47.068;15.408;2022-09-13T10:14:34;22.60;99.90
1996;DHT22;38556;47.068;15.408;2022-09-13T10:17:13;22.80;99.90
1996;DHT22;38556;47.068;15.408;2022-09-13T10:19:46;23.00;99.90
1996;DHT22;38556;47.068;15.408;2022-09-13T10:22:17;23.10;99.90
1996;DHT22;38556;47.068;15.408;2022-09-13T10:24:44;23.20;99.90
1996;DHT22;38556;47.068;15.408;2022-09-13T10:27:25;23.30;99.90
1996;DHT22;38556;47.068;15.408;2022-09-13T10:29:56;23.40;99.90
1996;DHT22;38556;47.068;15.408;2022-09-13T10:32:27;23.30;99.90
1996;DHT22;38556;47.068;15.408;2022-09-13T10:34:55;23.30;99.90
1996;DHT22;38556;47.068;15.408;2022-09-13T10:37:26;23.10;99.90
1996;DHT22;38556;47.068;15.408;2022-09-13T10:40:00;23.30;99.90
1996;DHT22;38556;47.068;15.408;2022-09-13T10:42:30;23.50;99.90
1996;DHT22;38556;47.068;15.408;2022-09-13T10:44:59;23.20;99.90
1996;DHT22;38556;47.068;15.408;2022-09-13T10:47:32;23.20;99.90
1996;DHT22;38556;47.068;15.408;2022-09-13T10:50:19;23.30;99.90
1996;DHT22;38556;47.068;15.408;2022-09-13T10:52:48;23.20;99.90
1996;DHT22;38556;47.068;15.408;2022-09-13T10:55:28;22.90;99.90
1996;DHT22;38556;47.068;15.408;2022-09-13T10:58:20;22.80;99.90
1996;DHT22;38556;47.068;15.408;2022-09-13T11:07:27;23.30;99.90
1996;DHT22;38556;47.068;15.408;2022-09-13T11:10:04;23.40;99.90
1996;DHT22;38556;47.068;15.408;2022-09-13T11:12:41;23.10;99.90
1996;DHT22;38556;47.068;15.408;2022-09-13T11:15:19;23.20;99.90
1996;DHT22;38556;47.068;15.408;2022-09-13T11:18:20;23.30;99.90
1996;DHT22;38556;47.068;15.408;2022-09-13T11:20:57;23.50;99.90
1996;DHT22;38556;47.068;15.408;2022-09-13T11:23:54;23.40;99.90
1996;DHT22;38556;47.068;15.408;2022-09-13T11:26:34;23.50;99.90
1996;DHT22;38556;47.068;15.408;2022-09-13T11:29:13;23.50;99.90
1996;DHT22;38556;47.068;15.408;2022-09-13T11:31:48;23.40;99.90
1996;DHT22;38556;47.068;15.408;2022-09-13T11:34:30;23.60;99.90
1996;DHT22;38556;47.068;15.408;2022-09-13T11:40:22;23.70;99.90
1996;DHT22;38556;47.068;15.408;2022-09-13T11:43:02;24.00;99.90
1996;DHT22;38556;47.068;15.408;2022-09-13T11:45:34;23.70;99.90
1996;DHT22;38556;47.068;15.408;2022-09-13T11:48:29;23.70;99.90
1996;DHT22;38556;47.068;15.408;2022-09-13T11:51:07;23.80;99.90
1996;DHT22;38556;47.068;15.408;2022-09-13T11:53:51;23.90;99.90
1996;DHT22;38556;47.068;15.408;2022-09-13T11:56:25;24.10;99.90
1996;DHT22;38556;47.068;15.408;2022-09-13T11:58:58;24.10;99.90
1996;DHT22;38556;47.068;15.408;2022-09-13T12:01:30;23.70;99.90
1996;DHT22;38556;47.068;15.408;2022-09-13T12:04:03;23.70;99.90
1996;DHT22;38556;47.068;15.408;2022-09-13T12:06:35;23.90;99.90
1996;DHT22;38556;47.068;15.408;2022-09-13T12:09:09;24.10;99.90
1996;DHT22;38556;47.068;15.408;2022-09-13T12:11:41;24.10;99.90
1996;DHT22;38556;47.068;15.408;2022-09-13T12:14:14;24.10;99.90
1996;DHT22;38556;47.068;15.408;2022-09-13T12:16:44;23.70;99.90
1996;DHT22;38556;47.068;15.408;2022-09-13T12:19:17;23.80;99.90
1996;DHT22;38556;47.068;15.408;2022-09-13T12:21:47;24.10;99.90
1996;DHT22;38556;47.068;15.408;2022-09-13T12:24:18;23.80;99.90
1996;DHT22;38556;47.068;15.408;2022-09-13T12:26:52;23.80;99.90
1996;DHT22;38556;47.068;15.408;2022-09-13T12:31:57;23.70;99.90
1996;DHT22;38556;47.068;15.408;2022-09-13T12:34:29;23.60;99.90
1996;DHT22;38556;47.068;15.408;2022-09-13T12:37:29;23.70;99.90
1996;DHT22;38556;47.068;15.408;2022-09-13T12:40:27;23.80;99.90
1996;DHT22;38556;47.068;15.408;2022-09-13T12:43:25;23.90;99.90
1996;DHT22;38556;47.068;15.408;2022-09-13T12:46:18;24.30;99.90
1996;DHT22;38556;47.068;15.408;2022-09-13T12:49:08;24.30;99.90
1996;DHT22;38556;47.068;15.408;2022-09-13T12:55:01;24.60;99.90
1996;DHT22;38556;47.068;15.408;2022-09-13T12:57:39;24.70;99.90
1996;DHT22;38556;47.068;15.408;2022-09-13T13:00:20;24.60;99.90
1996;DHT22;38556;47.068;15.408;2022-09-13T13:03:00;24.50;99.90
1996;DHT22;38556;47.068;15.408;2022-09-13T13:05:33;24.50;99.90
1996;DHT22;38556;47.068;15.408;2022-09-13T13:08:05;24.30;99.90
1996;DHT22;38556;47.068;15.408;2022-09-13T13:10:34;24.40;99.90
1996;DHT22;38556;47.068;15.408;2022-09-13T13:13:10;24.40;99.90
1996;DHT22;38556;47.068;15.408;2022-09-13T13:15:57;24.40;99.90
1996;DHT22;38556;47.068;15.408;2022-09-13T13:18:28;24.30;99.90
1996;DHT22;38556;47.068;15.408;2022-09-13T13:21:20;24.30;99.90
1996;DHT22;38556;47.068;15.408;2022-09-13T13:26:50;24.30;99.90
1996;DHT22;38556;47.068;15.408;2022-09-13T13:29:21;24.10;99.90
1996;DHT22;38556;47.068;15.408;2022-09-13T13:32:09;24.00;99.90
1996;DHT22;38556;47.068;15.408;2022-09-13T13:34:43;24.10;99.90
1996;DHT22;38556;47.068;15.408;2022-09-13T13:37:32;24.10;99.90
1996;DHT22;38556;47.068;15.408;2022-09-13T13:40:24;24.10;99.90
1996;DHT22;38556;47.068;15.408;2022-09-13T13:43:16;24.10;99.90
1996;DHT22;38556;47.068;15.408;2022-09-13T13:48:46;24.00;99.90
1996;DHT22;38556;47.068;15.408;2022-09-13T13:51:25;24.00;99.90
1996;DHT22;38556;47.068;15.408;2022-09-13T13:53:59;24.30;99.90
1996;DHT22;38556;47.068;15.408;2022-09-13T13:56:34;24.60;99.90
1996;DHT22;38556;47.068;15.408;2022-09-13T13:59:14;24.60;99.90
1996;DHT22;38556;47.068;15.408;2022-09-13T14:01:45;25.10;99.90
1996;DHT22;38556;47.068;15.408;2022-09-13T14:08:04;25.10;99.90
1996;DHT22;38556;47.068;15.408;2022-09-13T14:10:43;25.40;99.90
1996;DHT22;38556;47.068;15.408;2022-09-13T14:16:14;25.70;99.90
1996;DHT22;38556;47.068;15.408;2022-09-13T14:19:02;26.00;99.90
1996;DHT22;38556;47.068;15.408;2022-09-13T14:21:34;26.30;99.90
1996;DHT22;38556;47.068;15.408;2022-09-13T14:24:16;26.60;99.00
1996;DHT22;38556;47.068;15.408;2022-09-13T14:26:44;26.80;98.50
1996;DHT22;38556;47.068;15.408;2022-09-13T14:29:16;26.80;98.70
1996;DHT22;38556;47.068;15.408;2022-09-13T14:31:45;27.00;98.50
1996;DHT22;38556;47.068;15.408;2022-09-13T14:34:22;27.40;97.60
1996;DHT22;38556;47.068;15.408;2022-09-13T14:36:54;26.50;97.60
1996;DHT22;38556;47.068;15.408;2022-09-13T14:39:24;26.50;98.10
1996;DHT22;38556;47.068;15.408;2022-09-13T14:41:57;26.70;98.50
1996;DHT22;38556;47.068;15.408;2022-09-13T14:44:26;27.40;97.70
1996;DHT22;38556;47.068;15.408;2022-09-13T14:47:01;27.50;97.80
1996;DHT22;38556;47.068;15.408;2022-09-13T14:49:33;27.40;96.50
1996;DHT22;38556;47.068;15.408;2022-09-13T14:52:03;27.40;97.20
1996;DHT22;38556;47.068;15.408;2022-09-13T14:54:36;27.70;97.70
1996;DHT22;38556;47.068;15.408;2022-09-13T14:57:07;28.20;96.70
1996;DHT22;38556;47.068;15.408;2022-09-13T14:59:41;28.30;96.60
1996;DHT22;38556;47.068;15.408;2022-09-13T15:04:47;28.30;95.40
1996;DHT22;38556;47.068;15.408;2022-09-13T15:07:20;28.10;95.60
1996;DHT22;38556;47.068;15.408;2022-09-13T15:09:55;28.00;95.50
1996;DHT22;38556;47.068;15.408;2022-09-13T15:12:25;27.70;95.80
1996;DHT22;38556;47.068;15.408;2022-09-13T15:15:32;27.60;96.00
1996;DHT22;38556;47.068;15.408;2022-09-13T15:18:01;27.90;96.60
1996;DHT22;38556;47.068;15.408;2022-09-13T15:20:44;28.10;96.20
1996;DHT22;38556;47.068;15.408;2022-09-13T15:23:14;28.00;95.90
1996;DHT22;38556;47.068;15.408;2022-09-13T15:25:50;27.70;95.90
1996;DHT22;38556;47.068;15.408;2022-09-13T15:28:24;27.50;95.60
1996;DHT22;38556;47.068;15.408;2022-09-13T15:30:53;27.10;96.00
1996;DHT22;38556;47.068;15.408;2022-09-13T15:33:28;26.50;96.70
1996;DHT22;38556;47.068;15.408;2022-09-13T15:36:13;26.30;96.70
1996;DHT22;38556;47.068;15.408;2022-09-13T15:38:56;25.80;97.40
1996;DHT22;38556;47.068;15.408;2022-09-13T15:41:30;25.70;97.30
1996;DHT22;38556;47.068;15.408;2022-09-13T15:43:58;25.50;97.90
1996;DHT22;38556;47.068;15.408;2022-09-13T15:46:26;25.70;98.20
1996;DHT22;38556;47.068;15.408;2022-09-13T15:48:55;25.50;98.60
1996;DHT22;38556;47.068;15.408;2022-09-13T15:51:23;25.40;98.90
1996;DHT22;38556;47.068;15.408;2022-09-13T15:53:52;25.40;99.30
1996;DHT22;38556;47.068;15.408;2022-09-13T15:56:24;25.40;99.10
1996;DHT22;38556;47.068;15.408;2022-09-13T15:58:53;25.40;99.40
1996;DHT22;38556;47.068;15.408;2022-09-13T16:01:20;25.80;99.70
1996;DHT22;38556;47.068;15.408;2022-09-13T16:06:16;26.20;98.40
1996;DHT22;38556;47.068;15.408;2022-09-13T16:08:43;26.90;98.10
1996;DHT22;38556;47.068;15.408;2022-09-13T16:11:10;26.80;97.70
1996;DHT22;38556;47.068;15.408;2022-09-13T16:13:37;26.80;97.70
1996;DHT22;38556;47.068;15.408;2022-09-13T16:16:09;26.80;98.10
1996;DHT22;38556;47.068;15.408;2022-09-13T16:18:36;26.50;98.30
1996;DHT22;38556;47.068;15.408;2022-09-13T16:21:05;26.60;98.20
1996;DHT22;38556;47.068;15.408;2022-09-13T16:23:32;26.90;98.20
1996;DHT22;38556;47.068;15.408;2022-09-13T16:25:59;27.20;98.20
1996;DHT22;38556;47.068;15.408;2022-09-13T16:28:27;28.40;96.60
1996;DHT22;38556;47.068;15.408;2022-09-13T16:30:54;28.40;96.80
1996;DHT22;38556;47.068;15.408;2022-09-13T16:33:23;27.80;96.90
1996;DHT22;38556;47.068;15.408;2022-09-13T16:35:50;27.70;97.10
1996;DHT22;38556;47.068;15.408;2022-09-13T16:38:17;27.50;97.30
1996;DHT22;38556;47.068;15.408;2022-09-13T16:40:45;26.90;98.10
1996;DHT22;38556;47.068;15.408;2022-09-13T16:43:13;26.60;98.90
1996;DHT22;38556;47.068;15.408;2022-09-13T16:45:41;26.40;99.40
1996;DHT22;38556;47.068;15.408;2022-09-13T16:48:10;26.20;99.50
1996;DHT22;38556;47.068;15.408;2022-09-13T16:50:39;26.00;99.50
1996;DHT22;38556;47.068;15.408;2022-09-13T16:53:07;25.30;99.90
1996;DHT22;38556;47.068;15.408;2022-09-13T16:55:35;25.20;99.90
1996;DHT22;38556;47.068;15.408;2022-09-13T16:58:03;25.20;99.90